Página principal
METAR-TAF:

METAR-TAF

Aeroportos :

Klawock, Alasca, Estados Unidos

latitude: 55-35N, longitude: 133-05W, altura: 24 m

Observação actual do tempo

O boletim foi feito há 34 minutos, às 12:26 UTC
Vento calmo
Temperatura -1°C
Humidade 93%
Pressão 1022 hPa
Visibilidade: 0.4 km
nevoeiro gelado

METAR: PAKW 151226Z AUTO 00000KT 1/4SM FZFG VV001 M01/M02 A3018 RMK AO2 I1000 T10061022 TSNO

Hora: 05:00 (13:00 UTC)

Previsão

O boletim foi feito há 1 hora e 36 minutos, às 11:24 UTC
Previsão válida de 15 às 12 UTC a 16 às 12 UTC
Vento 2 kt com direcção variável
Visibilidade: 0.8 km
Encobertoa uma altura de 200 ft
nevoeiro
A partir de 15 às 1800 UTC
Vento 4 kt de oeste
Visibilidade: 3.2 km
Nuvens dispersasa uma altura de 200 ft
neblina
A partir de 15 às 2100 UTC
Vento 7 kt de su-sudoeste
Visibilidade: 10 km
Céu limpo

TAF: PAKW 151124Z 1512/1612 VRB02KT 1/2SM FG OVC002 FM151800 26004KT 2SM BR SCT002 FM152100 21007KT P6SM SKC AMD LTD TO CLD VIS AND WIND

Observações e previsões do tempo de mais de 4000 aeroportos (mensagens METAR e TAF).

As estações disponíveis são os pontos amarelos e vermelhos sobre o mapa.

Mova o rato sobre o mapa para ver o nome da estação.

Depois clique no ponto para visualizar as observações e previsões meteorológicas.

Para alterar o mapa : clique nos botões verdes com uma cruz preta para aumentar o zoom; no botão verde com uma pitada de zoom; ou nas setas verdes para mapas adjacentes.


METAR-TAF: